Flugplatz Bad Ditzenbach

Für EDPB sind keine METAR/TAF Berichte vorhanden.
Es werden die Flugwettermeldungen vom Flugplatz Stuttgart in 39 km Entfernung angezeigt.

Bericht für EDDS

vom 20.10. um 03:50 UTC

variable Windrichtung mit 2 kt

Sichtweite 10 km oder mehr

gute Sicht, keine Wolken < 5000 ft, keine CB, keine Wettererscheinungen (CAVOK)

Temperatur 9.0°C

Taupunkt 5.0°C

Luftfeuchtigkeit 76%

Luftdruck 1017 hPa

EDDS 200350Z VRB02KT CAVOK 09/05 Q1017

Prognose für EDDS

vom 19.10. um 23:00 UTC

Zwischen 00:00 UTC und 08:00 UTC

variable Windrichtung mit 2 kt

Sichtweite 10 km oder mehr

keine signifikanten Wettererscheinungen

keine Wolken


Zwischen 08:00 und 11:00 UTC übergehend zu

Wind 7 kt aus 190°

Sichtweite 10 km oder mehr

keine signifikanten Wettererscheinungen

keine Wolken


Zwischen 17:00 UTC und 21:00 UTC zeitweise

Regenschauer

aufgebrochene Bewölkung in 2000 ft

TAF EDDS 192300Z 2000/2024 VRB02KT CAVOK BECMG 2008/2011 19007KT TEMPO 2017/2021 SHRA BKN020TCU
Impressum